sensor_id;sensor_type;location;lat;lon;timestamp;pressure;altitude;pressure_sealevel;temperature;humidity
54978;BME280;40873;47.522;19.106;2022-11-23T00:01:20;98950.72;;;4.09;100.00
54978;BME280;40873;47.522;19.106;2022-11-23T00:03:50;98959.56;;;4.07;100.00
54978;BME280;40873;47.522;19.106;2022-11-23T00:06:18;98962.88;;;4.10;100.00
54978;BME280;40873;47.522;19.106;2022-11-23T00:08:47;98949.38;;;4.18;100.00
54978;BME280;40873;47.522;19.106;2022-11-23T00:11:15;98945.44;;;4.11;100.00
54978;BME280;40873;47.522;19.106;2022-11-23T00:13:42;98958.97;;;4.02;100.00
54978;BME280;40873;47.522;19.106;2022-11-23T00:16:17;98949.31;;;4.04;100.00
54978;BME280;40873;47.522;19.106;2022-11-23T00:18:44;98946.63;;;4.05;100.00
54978;BME280;40873;47.522;19.106;2022-11-23T00:21:16;98953.53;;;4.06;100.00
54978;BME280;40873;47.522;19.106;2022-11-23T00:23:44;98946.72;;;4.04;100.00
54978;BME280;40873;47.522;19.106;2022-11-23T00:26:12;98947.88;;;4.14;100.00
54978;BME280;40873;47.522;19.106;2022-11-23T00:28:39;98947.97;;;4.12;100.00
54978;BME280;40873;47.522;19.106;2022-11-23T00:31:12;98942.91;;;4.09;100.00
54978;BME280;40873;47.522;19.106;2022-11-23T00:33:40;98936.09;;;4.07;100.00
54978;BME280;40873;47.522;19.106;2022-11-23T00:36:10;98934.16;;;4.10;100.00
54978;BME280;40873;47.522;19.106;2022-11-23T00:38:37;98938.44;;;4.11;100.00
54978;BME280;40873;47.522;19.106;2022-11-23T00:41:10;98949.72;;;4.12;100.00
54978;BME280;40873;47.522;19.106;2022-11-23T00:43:37;98944.31;;;4.15;100.00
54978;BME280;40873;47.522;19.106;2022-11-23T00:46:13;98952.06;;;4.17;100.00
54978;BME280;40873;47.522;19.106;2022-11-23T00:48:41;98949.72;;;4.12;100.00
54978;BME280;40873;47.522;19.106;2022-11-23T00:51:12;98949.53;;;4.15;100.00
54978;BME280;40873;47.522;19.106;2022-11-23T00:53:40;98944.22;;;4.17;100.00
54978;BME280;40873;47.522;19.106;2022-11-23T00:56:07;98941.56;;;4.18;100.00
54978;BME280;40873;47.522;19.106;2022-11-23T00:58:34;98938.16;;;4.16;100.00
54978;BME280;40873;47.522;19.106;2022-11-23T01:01:12;98941.22;;;4.08;100.00
54978;BME280;40873;47.522;19.106;2022-11-23T01:03:42;98937.66;;;4.09;100.00
54978;BME280;40873;47.522;19.106;2022-11-23T01:06:12;98934.00;;;3.98;100.00
54978;BME280;40873;47.522;19.106;2022-11-23T01:08:40;98939.88;;;4.01;100.00
54978;BME280;40873;47.522;19.106;2022-11-23T01:11:10;98938.88;;;4.04;100.00
54978;BME280;40873;47.522;19.106;2022-11-23T01:13:38;98927.16;;;3.95;100.00
54978;BME280;40873;47.522;19.106;2022-11-23T01:16:09;98929.19;;;4.06;100.00
54978;BME280;40873;47.522;19.106;2022-11-23T01:18:38;98931.13;;;4.18;100.00
54978;BME280;40873;47.522;19.106;2022-11-23T01:21:05;98937.63;;;4.11;100.00
54978;BME280;40873;47.522;19.106;2022-11-23T01:23:32;98934.16;;;4.10;100.00
54978;BME280;40873;47.522;19.106;2022-11-23T01:26:18;98916.72;;;4.11;100.00
54978;BME280;40873;47.522;19.106;2022-11-23T01:28:45;98921.47;;;4.04;100.00
54978;BME280;40873;47.522;19.106;2022-11-23T01:31:18;98920.69;;;4.02;100.00
54978;BME280;40873;47.522;19.106;2022-11-23T01:33:45;98913.44;;;4.07;100.00
54978;BME280;40873;47.522;19.106;2022-11-23T01:36:18;98926.34;;;4.10;100.00
54978;BME280;40873;47.522;19.106;2022-11-23T01:38:48;98917.56;;;4.11;100.00
54978;BME280;40873;47.522;19.106;2022-11-23T01:41:21;98916.78;;;4.09;100.00
54978;BME280;40873;47.522;19.106;2022-11-23T01:43:49;98920.44;;;4.07;100.00
54978;BME280;40873;47.522;19.106;2022-11-23T01:46:16;98916.63;;;4.12;100.00
54978;BME280;40873;47.522;19.106;2022-11-23T01:51:30;98907.28;;;4.08;100.00
54978;BME280;40873;47.522;19.106;2022-11-23T01:54:01;98905.16;;;4.15;100.00
54978;BME280;40873;47.522;19.106;2022-11-23T01:56:34;98906.09;;;4.14;100.00
54978;BME280;40873;47.522;19.106;2022-11-23T01:59:07;98909.75;;;4.11;100.00
54978;BME280;40873;47.522;19.106;2022-11-23T02:01:36;98907.19;;;4.10;100.00
54978;BME280;40873;47.522;19.106;2022-11-23T02:04:06;98900.38;;;4.07;100.00
54978;BME280;40873;47.522;19.106;2022-11-23T02:06:34;98898.81;;;4.05;100.00
54978;BME280;40873;47.522;19.106;2022-11-23T02:09:02;98903.84;;;4.08;100.00
54978;BME280;40873;47.522;19.106;2022-11-23T02:11:29;98913.00;;;4.15;100.00
54978;BME280;40873;47.522;19.106;2022-11-23T02:13:56;98898.53;;;4.09;100.00
54978;BME280;40873;47.522;19.106;2022-11-23T02:16:24;98911.84;;;4.05;100.00
54978;BME280;40873;47.522;19.106;2022-11-23T02:18:51;98907.47;;;4.05;100.00
54978;BME280;40873;47.522;19.106;2022-11-23T02:21:19;98900.47;;;4.06;100.00
54978;BME280;40873;47.522;19.106;2022-11-23T02:24:03;98903.34;;;4.01;100.00
54978;BME280;40873;47.522;19.106;2022-11-23T02:26:35;98900.56;;;4.04;100.00
54978;BME280;40873;47.522;19.106;2022-11-23T02:29:06;98909.59;;;3.99;100.00
54978;BME280;40873;47.522;19.106;2022-11-23T02:31:35;98919.78;;;4.03;100.00
54978;BME280;40873;47.522;19.106;2022-11-23T02:34:02;98914.13;;;3.95;100.00
54978;BME280;40873;47.522;19.106;2022-11-23T02:36:41;98910.44;;;3.99;100.00
54978;BME280;40873;47.522;19.106;2022-11-23T02:39:12;98901.91;;;3.96;100.00
54978;BME280;40873;47.522;19.106;2022-11-23T02:41:45;98897.81;;;3.92;100.00
54978;BME280;40873;47.522;19.106;2022-11-23T02:44:57;98889.72;;;3.96;100.00
54978;BME280;40873;47.522;19.106;2022-11-23T02:47:04;98902.94;;;3.93;100.00
54978;BME280;40873;47.522;19.106;2022-11-23T02:49:31;98909.09;;;3.92;100.00
54978;BME280;40873;47.522;19.106;2022-11-23T02:51:58;98908.41;;;3.89;100.00
54978;BME280;40873;47.522;19.106;2022-11-23T02:54:25;98912.63;;;3.91;100.00
54978;BME280;40873;47.522;19.106;2022-11-23T02:56:53;98895.88;;;3.79;100.00
54978;BME280;40873;47.522;19.106;2022-11-23T02:59:19;98903.72;;;3.79;100.00
54978;BME280;40873;47.522;19.106;2022-11-23T03:01:47;98895.63;;;3.84;100.00
54978;BME280;40873;47.522;19.106;2022-11-23T03:04:14;98897.41;;;3.83;100.00
54978;BME280;40873;47.522;19.106;2022-11-23T03:06:41;98898.16;;;3.85;100.00
54978;BME280;40873;47.522;19.106;2022-11-23T03:09:08;98904.22;;;3.86;100.00
54978;BME280;40873;47.522;19.106;2022-11-23T03:11:35;98899.19;;;3.83;100.00
54978;BME280;40873;47.522;19.106;2022-11-23T03:14:03;98901.78;;;3.83;100.00
54978;BME280;40873;47.522;19.106;2022-11-23T03:16:30;98890.50;;;3.82;100.00
54978;BME280;40873;47.522;19.106;2022-11-23T03:18:56;98907.91;;;3.82;100.00
54978;BME280;40873;47.522;19.106;2022-11-23T03:21:24;98931.13;;;3.87;100.00
54978;BME280;40873;47.522;19.106;2022-11-23T03:23:51;98899.00;;;3.86;100.00
54978;BME280;40873;47.522;19.106;2022-11-23T03:26:18;98892.84;;;3.87;100.00
54978;BME280;40873;47.522;19.106;2022-11-23T03:28:44;98894.81;;;3.83;100.00
54978;BME280;40873;47.522;19.106;2022-11-23T03:31:11;98899.19;;;3.83;100.00
54978;BME280;40873;47.522;19.106;2022-11-23T03:33:38;98906.91;;;3.84;100.00
54978;BME280;40873;47.522;19.106;2022-11-23T03:36:06;98892.94;;;3.85;100.00
54978;BME280;40873;47.522;19.106;2022-11-23T03:38:33;98899.44;;;3.78;100.00
54978;BME280;40873;47.522;19.106;2022-11-23T03:41:00;98897.41;;;3.83;100.00
54978;BME280;40873;47.522;19.106;2022-11-23T03:43:26;98905.88;;;3.87;100.00
54978;BME280;40873;47.522;19.106;2022-11-23T03:45:54;98898.81;;;3.89;100.00
54978;BME280;40873;47.522;19.106;2022-11-23T03:48:20;98901.59;;;3.86;100.00
54978;BME280;40873;47.522;19.106;2022-11-23T03:50:47;98900.75;;;3.85;100.00
54978;BME280;40873;47.522;19.106;2022-11-23T03:53:14;98902.44;;;3.87;100.00
54978;BME280;40873;47.522;19.106;2022-11-23T03:55:44;98904.13;;;3.88;100.00
54978;BME280;40873;47.522;19.106;2022-11-23T03:58:11;98887.47;;;3.90;100.00
54978;BME280;40873;47.522;19.106;2022-11-23T04:00:38;98886.88;;;3.85;100.00
54978;BME280;40873;47.522;19.106;2022-11-23T04:03:05;98886.69;;;3.88;100.00
54978;BME280;40873;47.522;19.106;2022-11-23T04:05:32;98890.00;;;3.92;100.00
54978;BME280;40873;47.522;19.106;2022-11-23T04:07:58;98900.34;;;3.93;100.00
54978;BME280;40873;47.522;19.106;2022-11-23T04:10:26;98896.47;;;3.84;100.00
54978;BME280;40873;47.522;19.106;2022-11-23T04:12:53;98912.63;;;3.91;100.00
54978;BME280;40873;47.522;19.106;2022-11-23T04:15:20;98901.00;;;3.97;100.00
54978;BME280;40873;47.522;19.106;2022-11-23T04:17:47;98893.44;;;3.92;100.00
54978;BME280;40873;47.522;19.106;2022-11-23T04:20:14;98894.88;;;3.98;100.00
54978;BME280;40873;47.522;19.106;2022-11-23T04:22:41;98893.69;;;3.88;100.00
54978;BME280;40873;47.522;19.106;2022-11-23T04:25:08;98890.41;;;3.84;100.00
54978;BME280;40873;47.522;19.106;2022-11-23T04:27:35;98891.91;;;3.88;100.00
54978;BME280;40873;47.522;19.106;2022-11-23T04:30:03;98899.69;;;3.90;100.00
54978;BME280;40873;47.522;19.106;2022-11-23T04:32:30;98917.84;;;3.91;100.00
54978;BME280;40873;47.522;19.106;2022-11-23T04:34:57;98921.19;;;3.93;100.00
54978;BME280;40873;47.522;19.106;2022-11-23T04:37:23;98902.53;;;3.85;100.00
54978;BME280;40873;47.522;19.106;2022-11-23T04:39:51;98901.59;;;3.86;100.00
54978;BME280;40873;47.522;19.106;2022-11-23T04:42:17;98894.84;;;3.82;100.00
54978;BME280;40873;47.522;19.106;2022-11-23T04:44:45;98893.97;;;3.83;100.00
54978;BME280;40873;47.522;19.106;2022-11-23T04:47:12;98898.69;;;3.76;100.00
54978;BME280;40873;47.522;19.106;2022-11-23T04:49:39;98908.09;;;3.79;100.00
54978;BME280;40873;47.522;19.106;2022-11-23T04:52:06;98906.06;;;3.84;100.00
54978;BME280;40873;47.522;19.106;2022-11-23T04:54:33;98919.13;;;3.84;100.00
54978;BME280;40873;47.522;19.106;2022-11-23T04:57:00;98922.56;;;3.84;100.00
54978;BME280;40873;47.522;19.106;2022-11-23T04:59:27;98917.50;;;3.81;100.00
54978;BME280;40873;47.522;19.106;2022-11-23T05:01:54;98909.94;;;3.77;100.00
54978;BME280;40873;47.522;19.106;2022-11-23T05:04:21;98905.56;;;3.77;100.00
54978;BME280;40873;47.522;19.106;2022-11-23T05:06:48;98904.41;;;3.83;100.00
54978;BME280;40873;47.522;19.106;2022-11-23T05:09:15;98901.94;;;3.80;100.00
54978;BME280;40873;47.522;19.106;2022-11-23T05:11:42;98918.09;;;3.87;100.00
54978;BME280;40873;47.522;19.106;2022-11-23T05:14:09;98911.94;;;3.88;100.00
54978;BME280;40873;47.522;19.106;2022-11-23T05:16:36;98909.63;;;3.83;100.00
54978;BME280;40873;47.522;19.106;2022-11-23T05:19:03;98913.63;;;3.73;100.00
54978;BME280;40873;47.522;19.106;2022-11-23T05:21:30;98906.31;;;3.79;100.00
54978;BME280;40873;47.522;19.106;2022-11-23T05:23:57;98901.72;;;3.69;100.00
54978;BME280;40873;47.522;19.106;2022-11-23T05:26:24;98895.56;;;3.70;100.00
54978;BME280;40873;47.522;19.106;2022-11-23T05:28:51;98892.78;;;3.73;100.00
54978;BME280;40873;47.522;19.106;2022-11-23T05:31:18;98880.91;;;3.67;100.00
54978;BME280;40873;47.522;19.106;2022-11-23T05:33:45;98881.59;;;3.71;100.00
54978;BME280;40873;47.522;19.106;2022-11-23T05:36:12;98888.31;;;3.75;100.00
54978;BME280;40873;47.522;19.106;2022-11-23T05:38:40;98892.19;;;3.68;100.00
54978;BME280;40873;47.522;19.106;2022-11-23T05:41:07;98891.69;;;3.77;100.00
54978;BME280;40873;47.522;19.106;2022-11-23T05:43:34;98883.69;;;3.80;100.00
54978;BME280;40873;47.522;19.106;2022-11-23T05:46:01;98884.44;;;3.82;100.00
54978;BME280;40873;47.522;19.106;2022-11-23T05:48:28;98884.28;;;3.85;100.00
54978;BME280;40873;47.522;19.106;2022-11-23T05:50:55;98878.56;;;3.78;100.00
54978;BME280;40873;47.522;19.106;2022-11-23T05:53:30;98878.47;;;3.80;100.00
54978;BME280;40873;47.522;19.106;2022-11-23T05:55:59;98886.00;;;4.00;100.00
54978;BME280;40873;47.522;19.106;2022-11-23T05:58:27;98891.41;;;3.97;100.00
54978;BME280;40873;47.522;19.106;2022-11-23T06:00:58;98883.84;;;3.93;100.00
54978;BME280;40873;47.522;19.106;2022-11-23T06:03:26;98887.38;;;3.92;100.00
54978;BME280;40873;47.522;19.106;2022-11-23T06:05:53;98886.44;;;3.93;100.00
54978;BME280;40873;47.522;19.106;2022-11-23T06:08:20;98894.38;;;3.91;100.00
54978;BME280;40873;47.522;19.106;2022-11-23T06:10:47;98905.38;;;3.96;100.00
54978;BME280;40873;47.522;19.106;2022-11-23T06:13:14;98903.78;;;3.94;100.00
54978;BME280;40873;47.522;19.106;2022-11-23T06:15:41;98910.84;;;3.92;100.00
54978;BME280;40873;47.522;19.106;2022-11-23T06:18:08;98909.00;;;3.94;100.00
54978;BME280;40873;47.522;19.106;2022-11-23T06:20:35;98907.56;;;3.88;100.00
54978;BME280;40873;47.522;19.106;2022-11-23T06:23:02;98905.47;;;3.95;100.00
54978;BME280;40873;47.522;19.106;2022-11-23T06:25:29;98902.75;;;3.96;100.00
54978;BME280;40873;47.522;19.106;2022-11-23T06:27:58;98912.28;;;3.97;100.00
54978;BME280;40873;47.522;19.106;2022-11-23T06:30:27;98906.28;;;3.95;100.00
54978;BME280;40873;47.522;19.106;2022-11-23T06:32:54;98912.09;;;4.00;100.00
54978;BME280;40873;47.522;19.106;2022-11-23T06:35:21;98922.28;;;4.05;100.00
54978;BME280;40873;47.522;19.106;2022-11-23T06:37:50;98929.41;;;4.17;100.00
54978;BME280;40873;47.522;19.106;2022-11-23T06:40:17;98918.75;;;4.06;100.00
54978;BME280;40873;47.522;19.106;2022-11-23T06:42:44;98917.41;;;3.99;100.00
54978;BME280;40873;47.522;19.106;2022-11-23T06:45:11;98927.84;;;3.99;100.00
54978;BME280;40873;47.522;19.106;2022-11-23T06:47:38;98917.16;;;4.03;100.00
54978;BME280;40873;47.522;19.106;2022-11-23T06:50:05;98922.19;;;4.06;100.00
54978;BME280;40873;47.522;19.106;2022-11-23T06:52:33;98914.81;;;3.99;100.00
54978;BME280;40873;47.522;19.106;2022-11-23T06:54:59;98910.44;;;3.99;100.00
54978;BME280;40873;47.522;19.106;2022-11-23T06:57:26;98911.06;;;4.03;100.00
54978;BME280;40873;47.522;19.106;2022-11-23T06:59:53;98913.63;;;4.04;100.00
54978;BME280;40873;47.522;19.106;2022-11-23T07:02:20;98916.56;;;3.98;100.00
54978;BME280;40873;47.522;19.106;2022-11-23T07:04:49;98911.06;;;4.03;100.00
54978;BME280;40873;47.522;19.106;2022-11-23T07:07:17;98929.44;;;4.01;100.00
54978;BME280;40873;47.522;19.106;2022-11-23T07:09:43;98937.66;;;4.09;100.00
54978;BME280;40873;47.522;19.106;2022-11-23T07:12:11;98941.06;;;4.11;100.00
54978;BME280;40873;47.522;19.106;2022-11-23T07:14:37;98930.28;;;4.18;100.00
54978;BME280;40873;47.522;19.106;2022-11-23T07:17:04;98936.25;;;4.20;100.00
54978;BME280;40873;47.522;19.106;2022-11-23T07:19:31;98933.78;;;4.17;100.00
54978;BME280;40873;47.522;19.106;2022-11-23T07:21:59;98937.81;;;4.22;100.00
54978;BME280;40873;47.522;19.106;2022-11-23T07:24:25;98932.69;;;4.21;100.00
54978;BME280;40873;47.522;19.106;2022-11-23T07:26:53;98934.81;;;4.14;100.00
54978;BME280;40873;47.522;19.106;2022-11-23T07:29:19;98937.00;;;4.22;100.00
54978;BME280;40873;47.522;19.106;2022-11-23T07:31:46;98930.34;;;4.16;100.00
54978;BME280;40873;47.522;19.106;2022-11-23T07:34:13;98936.34;;;4.18;100.00
54978;BME280;40873;47.522;19.106;2022-11-23T07:36:42;98940.72;;;4.18;100.00
54978;BME280;40873;47.522;19.106;2022-11-23T07:39:08;98928.31;;;4.21;100.00
54978;BME280;40873;47.522;19.106;2022-11-23T07:41:35;98935.56;;;4.16;100.00
54978;BME280;40873;47.522;19.106;2022-11-23T07:44:02;98929.50;;;4.16;100.00
54978;BME280;40873;47.522;19.106;2022-11-23T07:46:29;98936.25;;;4.20;100.00
54978;BME280;40873;47.522;19.106;2022-11-23T07:48:56;98937.19;;;4.19;100.00
54978;BME280;40873;47.522;19.106;2022-11-23T07:51:28;98933.53;;;4.21;100.00
54978;BME280;40873;47.522;19.106;2022-11-23T07:53:55;98945.84;;;4.19;100.00
54978;BME280;40873;47.522;19.106;2022-11-23T07:56:23;98946.50;;;4.23;100.00
54978;BME280;40873;47.522;19.106;2022-11-23T07:58:50;98941.63;;;4.17;100.00
54978;BME280;40873;47.522;19.106;2022-11-23T08:01:17;98940.53;;;4.21;100.00
54978;BME280;40873;47.522;19.106;2022-11-23T08:03:46;98936.66;;;4.28;100.00
54978;BME280;40873;47.522;19.106;2022-11-23T08:06:16;98934.53;;;4.34;100.00
54978;BME280;40873;47.522;19.106;2022-11-23T08:08:43;98940.50;;;4.36;100.00
54978;BME280;40873;47.522;19.106;2022-11-23T08:11:10;98941.81;;;4.44;100.00
54978;BME280;40873;47.522;19.106;2022-11-23T08:13:42;98946.88;;;4.47;100.00
54978;BME280;40873;47.522;19.106;2022-11-23T08:16:10;98945.72;;;4.36;100.00
54978;BME280;40873;47.522;19.106;2022-11-23T08:18:36;98949.00;;;4.40;100.00
54978;BME280;40873;47.522;19.106;2022-11-23T08:21:04;98951.34;;;4.45;100.00
54978;BME280;40873;47.522;19.106;2022-11-23T08:23:31;98955.06;;;4.40;100.00
54978;BME280;40873;47.522;19.106;2022-11-23T08:25:58;98962.81;;;4.42;100.00
54978;BME280;40873;47.522;19.106;2022-11-23T08:28:27;98950.94;;;4.36;100.00
54978;BME280;40873;47.522;19.106;2022-11-23T08:30:54;98953.63;;;4.35;100.00
54978;BME280;40873;47.522;19.106;2022-11-23T08:33:21;98947.38;;;4.37;100.00
54978;BME280;40873;47.522;19.106;2022-11-23T08:35:49;98951.53;;;4.42;100.00
54978;BME280;40873;47.522;19.106;2022-11-23T08:38:15;98952.34;;;4.42;100.00
54978;BME280;40873;47.522;19.106;2022-11-23T08:40:45;98953.88;;;4.46;100.00
54978;BME280;40873;47.522;19.106;2022-11-23T08:43:12;98950.44;;;4.46;100.00
54978;BME280;40873;47.522;19.106;2022-11-23T08:45:39;98954.84;;;4.59;100.00
54978;BME280;40873;47.522;19.106;2022-11-23T08:48:09;98954.19;;;4.56;100.00
54978;BME280;40873;47.522;19.106;2022-11-23T08:50:36;98948.34;;;4.66;100.00
54978;BME280;40873;47.522;19.106;2022-11-23T08:53:04;98954.31;;;4.68;100.00
54978;BME280;40873;47.522;19.106;2022-11-23T08:55:31;98947.31;;;4.69;100.00
54978;BME280;40873;47.522;19.106;2022-11-23T08:57:58;98960.13;;;4.74;100.00
54978;BME280;40873;47.522;19.106;2022-11-23T09:00:29;98963.56;;;4.74;100.00
54978;BME280;40873;47.522;19.106;2022-11-23T09:02:58;98963.63;;;4.73;100.00
54978;BME280;40873;47.522;19.106;2022-11-23T09:05:27;98966.34;;;4.71;100.00
54978;BME280;40873;47.522;19.106;2022-11-23T09:07:57;98963.34;;;4.63;100.00
54978;BME280;40873;47.522;19.106;2022-11-23T09:10:25;98968.47;;;4.64;100.00
54978;BME280;40873;47.522;19.106;2022-11-23T09:12:52;98963.97;;;4.52;100.00
54978;BME280;40873;47.522;19.106;2022-11-23T09:15:19;98958.06;;;4.49;100.00
54978;BME280;40873;47.522;19.106;2022-11-23T09:17:46;98964.97;;;4.50;100.00
54978;BME280;40873;47.522;19.106;2022-11-23T09:20:16;98968.63;;;4.47;100.00
54978;BME280;40873;47.522;19.106;2022-11-23T09:22:43;98963.19;;;4.50;100.00
54978;BME280;40873;47.522;19.106;2022-11-23T09:25:10;98959.53;;;4.38;100.00
54978;BME280;40873;47.522;19.106;2022-11-23T09:27:37;98955.72;;;4.44;100.00
54978;BME280;40873;47.522;19.106;2022-11-23T09:30:04;98959.75;;;4.50;100.00
54978;BME280;40873;47.522;19.106;2022-11-23T09:32:31;98956.41;;;4.48;100.00
54978;BME280;40873;47.522;19.106;2022-11-23T09:34:58;98957.31;;;4.47;100.00
54978;BME280;40873;47.522;19.106;2022-11-23T09:37:29;98957.81;;;4.53;100.00
54978;BME280;40873;47.522;19.106;2022-11-23T09:39:56;98960.69;;;4.49;100.00
54978;BME280;40873;47.522;19.106;2022-11-23T09:48:24;98957.41;;;4.45;100.00
54978;BME280;40873;47.522;19.106;2022-11-23T09:51:06;98954.63;;;4.48;100.00
54978;BME280;40873;47.522;19.106;2022-11-23T09:53:43;98956.97;;;4.53;100.00
54978;BME280;40873;47.522;19.106;2022-11-23T09:56:18;98956.13;;;4.52;100.00
54978;BME280;40873;47.522;19.106;2022-11-23T09:58:45;98957.72;;;4.55;100.00
54978;BME280;40873;47.522;19.106;2022-11-23T10:01:16;98949.69;;;4.58;100.00
54978;BME280;40873;47.522;19.106;2022-11-23T10:03:43;98953.72;;;4.63;100.00
54978;BME280;40873;47.522;19.106;2022-11-23T10:06:26;98954.22;;;4.70;100.00
54978;BME280;40873;47.522;19.106;2022-11-23T10:18:13;98954.56;;;4.64;100.00
54978;BME280;40873;47.522;19.106;2022-11-23T10:21:21;98955.59;;;4.61;100.00
54978;BME280;40873;47.522;19.106;2022-11-23T10:24:18;98950.63;;;4.57;100.00
54978;BME280;40873;47.522;19.106;2022-11-23T10:26:49;98948.75;;;4.59;100.00
54978;BME280;40873;47.522;19.106;2022-11-23T10:29:36;98959.63;;;4.67;100.00
54978;BME280;40873;47.522;19.106;2022-11-23T10:32:20;98944.78;;;4.67;100.00
54978;BME280;40873;47.522;19.106;2022-11-23T10:35:12;98954.13;;;4.72;100.00
54978;BME280;40873;47.522;19.106;2022-11-23T10:37:40;98946.94;;;4.75;100.00
54978;BME280;40873;47.522;19.106;2022-11-23T10:40:17;98943.28;;;4.63;100.00
54978;BME280;40873;47.522;19.106;2022-11-23T10:42:52;98949.06;;;4.54;100.00
54978;BME280;40873;47.522;19.106;2022-11-23T10:45:23;98952.25;;;4.59;100.00
54978;BME280;40873;47.522;19.106;2022-11-23T10:47:56;98951.78;;;4.67;100.00
54978;BME280;40873;47.522;19.106;2022-11-23T10:52:58;98952.28;;;4.74;100.00
54978;BME280;40873;47.522;19.106;2022-11-23T10:55:44;98951.59;;;4.70;100.00
54978;BME280;40873;47.522;19.106;2022-11-23T10:58:33;98957.41;;;4.75;100.00
54978;BME280;40873;47.522;19.106;2022-11-23T11:01:13;98954.69;;;4.77;100.00
54978;BME280;40873;47.522;19.106;2022-11-23T11:03:40;98956.22;;;4.81;100.00
54978;BME280;40873;47.522;19.106;2022-11-23T11:06:10;98945.66;;;4.82;100.00
54978;BME280;40873;47.522;19.106;2022-11-23T11:08:49;98944.03;;;4.65;100.00
54978;BME280;40873;47.522;19.106;2022-11-23T11:13:48;98947.13;;;4.72;100.00
54978;BME280;40873;47.522;19.106;2022-11-23T11:18:47;98944.97;;;4.64;100.00
54978;BME280;40873;47.522;19.106;2022-11-23T11:21:33;98939.28;;;4.72;100.00
54978;BME280;40873;47.522;19.106;2022-11-23T11:24:03;98938.44;;;4.72;100.00
54978;BME280;40873;47.522;19.106;2022-11-23T11:26:33;98940.59;;;4.79;100.00
54978;BME280;40873;47.522;19.106;2022-11-23T11:29:04;98947.59;;;4.79;100.00
54978;BME280;40873;47.522;19.106;2022-11-23T11:34:18;98943.78;;;4.84;100.00
54978;BME280;40873;47.522;19.106;2022-11-23T11:39:50;98940.72;;;4.92;100.00
54978;BME280;40873;47.522;19.106;2022-11-23T11:42:35;98948.03;;;5.01;100.00
54978;BME280;40873;47.522;19.106;2022-11-23T11:45:05;98945.13;;;5.06;100.00
54978;BME280;40873;47.522;19.106;2022-11-23T11:47:36;98941.31;;;5.11;100.00
54978;BME280;40873;47.522;19.106;2022-11-23T11:50:18;98949.72;;;5.16;100.00
54978;BME280;40873;47.522;19.106;2022-11-23T11:52:50;98951.28;;;5.19;100.00
54978;BME280;40873;47.522;19.106;2022-11-23T11:55:24;98942.72;;;5.17;100.00
54978;BME280;40873;47.522;19.106;2022-11-23T11:58:07;98955.59;;;5.20;100.00
54978;BME280;40873;47.522;19.106;2022-11-23T12:00:37;98947.94;;;5.17;100.00
54978;BME280;40873;47.522;19.106;2022-11-23T12:06:03;98945.91;;;5.08;100.00
54978;BME280;40873;47.522;19.106;2022-11-23T12:11:19;98951.50;;;5.16;100.00
54978;BME280;40873;47.522;19.106;2022-11-23T12:13:46;98952.34;;;5.16;100.00
54978;BME280;40873;47.522;19.106;2022-11-23T12:24:15;98949.25;;;5.10;100.00
54978;BME280;40873;47.522;19.106;2022-11-23T12:30:23;98949.03;;;5.13;100.00
54978;BME280;40873;47.522;19.106;2022-11-23T12:46:50;98930.66;;;5.14;100.00
54978;BME280;40873;47.522;19.106;2022-11-23T12:49:47;98930.66;;;5.14;100.00
54978;BME280;40873;47.522;19.106;2022-11-23T12:55:18;98939.53;;;5.12;100.00
54978;BME280;40873;47.522;19.106;2022-11-23T12:58:11;98936.16;;;5.10;100.00
54978;BME280;40873;47.522;19.106;2022-11-23T13:00:50;98934.56;;;5.07;100.00
54978;BME280;40873;47.522;19.106;2022-11-23T13:11:44;98947.28;;;5.13;100.00
54978;BME280;40873;47.522;19.106;2022-11-23T13:17:23;98946.53;;;5.11;100.00
54978;BME280;40873;47.522;19.106;2022-11-23T13:22:29;98957.00;;;5.11;100.00
54978;BME280;40873;47.522;19.106;2022-11-23T13:25:13;98958.75;;;5.11;100.00
54978;BME280;40873;47.522;19.106;2022-11-23T13:42:50;98965.56;;;4.99;100.00
54978;BME280;40873;47.522;19.106;2022-11-23T13:53:40;98966.94;;;4.90;100.00
54978;BME280;40873;47.522;19.106;2022-11-23T13:56:23;98965.75;;;4.96;100.00
54978;BME280;40873;47.522;19.106;2022-11-23T14:04:38;98969.19;;;4.97;100.00
54978;BME280;40873;47.522;19.106;2022-11-23T14:12:20;98963.78;;;5.00;100.00
54978;BME280;40873;47.522;19.106;2022-11-23T14:25:44;98967.22;;;5.00;100.00
54978;BME280;40873;47.522;19.106;2022-11-23T14:28:52;98965.19;;;5.05;100.00
54978;BME280;40873;47.522;19.106;2022-11-23T14:31:40;98971.47;;;5.03;100.00
54978;BME280;40873;47.522;19.106;2022-11-23T14:34:30;98966.31;;;5.01;100.00
54978;BME280;40873;47.522;19.106;2022-11-23T14:37:59;98974.16;;;5.01;100.00
54978;BME280;40873;47.522;19.106;2022-11-23T14:40:24;98977.69;;;5.00;100.00
54978;BME280;40873;47.522;19.106;2022-11-23T14:42:55;98977.78;;;4.99;100.00
54978;BME280;40873;47.522;19.106;2022-11-23T14:45:27;98975.16;;;4.99;100.00
54978;BME280;40873;47.522;19.106;2022-11-23T14:47:56;98979.31;;;5.03;100.00
54978;BME280;40873;47.522;19.106;2022-11-23T14:50:28;98983.75;;;5.01;100.00
54978;BME280;40873;47.522;19.106;2022-11-23T14:52:56;98979.41;;;5.01;100.00
54978;BME280;40873;47.522;19.106;2022-11-23T14:55:27;98984.44;;;5.04;100.00
54978;BME280;40873;47.522;19.106;2022-11-23T14:58:01;98985.94;;;5.08;100.00
54978;BME280;40873;47.522;19.106;2022-11-23T15:00:40;98989.94;;;5.14;100.00
54978;BME280;40873;47.522;19.106;2022-11-23T15:03:11;98994.63;;;5.09;100.00
54978;BME280;40873;47.522;19.106;2022-11-23T15:06:09;98991.81;;;5.12;100.00
54978;BME280;40873;47.522;19.106;2022-11-23T15:08:49;98995.25;;;5.12;100.00
54978;BME280;40873;47.522;19.106;2022-11-23T15:11:20;98998.72;;;5.13;100.00